• Join FlightAware (Why Join?)
  • Login
  • US Flag 
11:50AM EDT


 

Airport Tracker/Info


-or-


 

Live Flight TrackerFlight Track Log ✈ N319EE ✈ 07-Oct-2013 ✈ KROC - KBGM

Flight Track Log - Related Links

Times and Time Zones

All times are in EDT time to prevent confusion due to time zone crossing. See the N319EE flight status page for this flight to view local times or setup timezone preferences in your user account.

Time Position Orientation Groundspeed Altitude Reporting Facility
EDT Latitude Longitude Course Direction KTS MPH feet Rate Location/Type
01:04PM 43.1089 -77.6881 169° South 130 150 1,300  Level Cleveland Center
01:05PM 43.0756 -77.6789 169° South 152 175 3,500 2,460 Climbing Cleveland Center
01:06PM 43.0342 -77.6594 161° South 155 178 5,800 2,160 Climbing Cleveland Center
01:07PM 42.9958 -77.6258 147° Southeast 178 205 8,000 1,980 Climbing Cleveland Center
01:08PM 42.9700 -77.5706 123° Southeast 173 199 10,000 1,380 Climbing Cleveland Center
01:09PM 42.9394 -77.5106 125° Southeast 187 215 10,900 480 Climbing Cleveland Center
01:10PM 42.9064 -77.4367 121° Southeast 220 253 11,000  Climbing Cleveland Center
01:11PM 42.8719 -77.3608 122° Southeast 233 268 11,000  Level Cleveland Center
01:12PM 42.8294 -77.2694 122° Southeast 236 272 11,000  Level Cleveland Center
01:14PM 42.7944 -77.1953 123° Southeast 233 268 11,000  Level Cleveland Center
01:15PM 42.7603 -77.1253 124° Southeast 224 258 11,000  Level Cleveland Center
01:16PM 42.7278 -77.0561 123° Southeast 218 251 11,000  Level Cleveland Center
01:17PM 42.6958 -76.9869 122° Southeast 216 249 11,000 -60 Level Cleveland Center
01:18PM 42.6600 -76.9122 123° Southeast 231 266 10,900 -60 Descending Cleveland Center
01:19PM 42.6228 -76.8333 123° Southeast 243 280 10,900  Level Cleveland Center
01:20PM 42.5772 -76.7386 123° Southeast 248 285 10,900 -420 Level Cleveland Center
01:21PM 42.5381 -76.6606 124° Southeast 252 290 10,100 -900 Descending Cleveland Center
01:22PM 42.4883 -76.5939 135° Southeast 249 287 9,100 -600 Descending Cleveland Center
01:23PM 42.4428 -76.5289 134° Southeast 243 280 8,900 -780 Descending Cleveland Center
01:24PM 42.3942 -76.4589 133° Southeast 250 288 7,500 -1,500 Descending Cleveland Center
01:25PM 42.3411 -76.3978 140° Southeast 251 289 5,900 -1,440 Descending Cleveland Center
01:26PM 42.2883 -76.3358 139° Southeast 248 285 4,600 -1,020 Descending Cleveland Center
01:27PM 42.2203 -76.2628 142° Southeast 257 296 3,900 -360 Descending Cleveland Center
01:28PM 42.1694 -76.2122 144° Southeast 237 273 3,900  Level Cleveland Center
01:29PM 42.1094 -76.1519 143° Southeast 236 272 3,900  Level New York Center
01:30PM 42.0600 -76.0978 141° Southeast 230 265 3,900  Level New York Center
01:31PM 42.0208 -76.0414 133° Southeast 230 265 3,900  Level New York Center
01:32PM 42.0122 -75.9542 98° East 222 255 3,900  Level New York Center
01:33PM 42.0164 -75.8569 87° East 229 264 3,900  Level New York Center
01:34PM 42.0542 -75.8514 North 150 173 4,000 60 Climbing New York Center